sensor_id;sensor_type;location;lat;lon;timestamp;temperature;humidity
65836;SHT30;52595;51.608;7.216;2022-10-16T00:00:56;12.77;99.99
65836;SHT30;52595;51.608;7.216;2022-10-16T00:03:22;12.73;99.99
65836;SHT30;52595;51.608;7.216;2022-10-16T00:05:47;12.67;99.99
65836;SHT30;52595;51.608;7.216;2022-10-16T00:08:13;12.59;99.99
65836;SHT30;52595;51.608;7.216;2022-10-16T00:10:39;12.50;99.99
65836;SHT30;52595;51.608;7.216;2022-10-16T00:13:05;12.49;99.99
65836;SHT30;52595;51.608;7.216;2022-10-16T00:15:36;12.46;99.99
65836;SHT30;52595;51.608;7.216;2022-10-16T00:18:03;12.50;99.99
65836;SHT30;52595;51.608;7.216;2022-10-16T00:20:29;12.50;99.99
65836;SHT30;52595;51.608;7.216;2022-10-16T00:22:56;12.43;99.99
65836;SHT30;52595;51.608;7.216;2022-10-16T00:25:22;12.28;99.99
65836;SHT30;52595;51.608;7.216;2022-10-16T00:27:47;12.25;99.99
65836;SHT30;52595;51.608;7.216;2022-10-16T00:30:13;12.35;99.99
65836;SHT30;52595;51.608;7.216;2022-10-16T00:32:38;12.35;99.99
65836;SHT30;52595;51.608;7.216;2022-10-16T00:35:04;12.39;99.99
65836;SHT30;52595;51.608;7.216;2022-10-16T00:37:29;12.43;99.99
65836;SHT30;52595;51.608;7.216;2022-10-16T00:39:55;12.40;99.99
65836;SHT30;52595;51.608;7.216;2022-10-16T00:42:22;12.35;99.99
65836;SHT30;52595;51.608;7.216;2022-10-16T00:44:51;12.33;99.99
65836;SHT30;52595;51.608;7.216;2022-10-16T00:47:21;12.35;99.99
65836;SHT30;52595;51.608;7.216;2022-10-16T00:49:49;12.36;99.99
65836;SHT30;52595;51.608;7.216;2022-10-16T00:52:16;12.39;99.99
65836;SHT30;52595;51.608;7.216;2022-10-16T00:54:42;12.38;99.99
65836;SHT30;52595;51.608;7.216;2022-10-16T00:57:07;12.45;99.99
65836;SHT30;52595;51.608;7.216;2022-10-16T00:59:36;12.45;99.99
65836;SHT30;52595;51.608;7.216;2022-10-16T01:02:03;12.42;99.99
65836;SHT30;52595;51.608;7.216;2022-10-16T01:04:34;12.36;99.99
65836;SHT30;52595;51.608;7.216;2022-10-16T01:10:35;12.38;99.99
65836;SHT30;52595;51.608;7.216;2022-10-16T01:13:08;12.40;99.99
65836;SHT30;52595;51.608;7.216;2022-10-16T01:15:42;12.39;99.99
65836;SHT30;52595;51.608;7.216;2022-10-16T01:18:30;12.39;99.99
65836;SHT30;52595;51.608;7.216;2022-10-16T01:21:04;12.45;99.99
65836;SHT30;52595;51.608;7.216;2022-10-16T01:24:03;12.48;99.99
65836;SHT30;52595;51.608;7.216;2022-10-16T01:29:39;12.55;99.99
65836;SHT30;52595;51.608;7.216;2022-10-16T01:35:04;12.49;99.99
65836;SHT30;52595;51.608;7.216;2022-10-16T01:37:44;12.43;99.99
65836;SHT30;52595;51.608;7.216;2022-10-16T01:40:14;12.39;99.99
65836;SHT30;52595;51.608;7.216;2022-10-16T01:42:51;12.36;99.99
65836;SHT30;52595;51.608;7.216;2022-10-16T01:45:19;12.36;99.99
65836;SHT30;52595;51.608;7.216;2022-10-16T01:47:45;12.38;99.99
65836;SHT30;52595;51.608;7.216;2022-10-16T01:50:14;12.38;99.99
65836;SHT30;52595;51.608;7.216;2022-10-16T01:52:43;12.36;99.99
65836;SHT30;52595;51.608;7.216;2022-10-16T01:55:11;12.28;99.99
65836;SHT30;52595;51.608;7.216;2022-10-16T01:57:40;12.25;99.99
65836;SHT30;52595;51.608;7.216;2022-10-16T02:00:10;12.30;99.99
65836;SHT30;52595;51.608;7.216;2022-10-16T02:02:38;12.26;99.99
65836;SHT30;52595;51.608;7.216;2022-10-16T02:05:26;12.21;99.99
65836;SHT30;52595;51.608;7.216;2022-10-16T02:07:53;12.11;99.99
65836;SHT30;52595;51.608;7.216;2022-10-16T02:10:19;12.12;99.99
65836;SHT30;52595;51.608;7.216;2022-10-16T02:12:49;12.04;99.99
65836;SHT30;52595;51.608;7.216;2022-10-16T02:15:16;12.02;99.99
65836;SHT30;52595;51.608;7.216;2022-10-16T02:17:41;11.97;99.99
65836;SHT30;52595;51.608;7.216;2022-10-16T02:20:07;11.97;99.99
65836;SHT30;52595;51.608;7.216;2022-10-16T02:22:34;12.09;99.99
65836;SHT30;52595;51.608;7.216;2022-10-16T02:25:21;12.25;99.99
65836;SHT30;52595;51.608;7.216;2022-10-16T02:27:57;12.30;99.99
65836;SHT30;52595;51.608;7.216;2022-10-16T02:33:04;12.46;99.99
65836;SHT30;52595;51.608;7.216;2022-10-16T02:35:31;12.52;99.95
65836;SHT30;52595;51.608;7.216;2022-10-16T02:37:57;12.40;99.61
65836;SHT30;52595;51.608;7.216;2022-10-16T02:40:23;12.38;99.74
65836;SHT30;52595;51.608;7.216;2022-10-16T02:42:51;12.29;99.84
65836;SHT30;52595;51.608;7.216;2022-10-16T02:45:17;12.28;99.93
65836;SHT30;52595;51.608;7.216;2022-10-16T02:47:43;12.29;99.87
65836;SHT30;52595;51.608;7.216;2022-10-16T02:50:08;12.24;99.83
65836;SHT30;52595;51.608;7.216;2022-10-16T02:52:34;12.25;99.99
65836;SHT30;52595;51.608;7.216;2022-10-16T02:54:59;12.29;99.99
65836;SHT30;52595;51.608;7.216;2022-10-16T02:57:25;12.30;99.99
65836;SHT30;52595;51.608;7.216;2022-10-16T02:59:50;12.24;99.96
65836;SHT30;52595;51.608;7.216;2022-10-16T03:02:16;12.29;99.99
65836;SHT30;52595;51.608;7.216;2022-10-16T03:04:41;12.36;99.96
65836;SHT30;52595;51.608;7.216;2022-10-16T03:07:07;12.30;99.69
65836;SHT30;52595;51.608;7.216;2022-10-16T03:09:32;12.36;99.70
65836;SHT30;52595;51.608;7.216;2022-10-16T03:11:58;12.40;99.78
65836;SHT30;52595;51.608;7.216;2022-10-16T03:14:23;12.39;99.54
65836;SHT30;52595;51.608;7.216;2022-10-16T03:16:49;12.39;99.64
65836;SHT30;52595;51.608;7.216;2022-10-16T03:19:17;12.36;99.51
65836;SHT30;52595;51.608;7.216;2022-10-16T03:21:43;12.40;99.75
65836;SHT30;52595;51.608;7.216;2022-10-16T03:24:08;12.43;99.40
65836;SHT30;52595;51.608;7.216;2022-10-16T03:26:33;12.52;99.21
65836;SHT30;52595;51.608;7.216;2022-10-16T03:28:59;12.52;98.97
65836;SHT30;52595;51.608;7.216;2022-10-16T03:31:24;12.57;98.60
65836;SHT30;52595;51.608;7.216;2022-10-16T03:33:50;12.59;98.47
65836;SHT30;52595;51.608;7.216;2022-10-16T03:36:15;12.55;98.39
65836;SHT30;52595;51.608;7.216;2022-10-16T03:38:40;12.63;98.14
65836;SHT30;52595;51.608;7.216;2022-10-16T03:41:06;12.70;97.93
65836;SHT30;52595;51.608;7.216;2022-10-16T03:43:33;12.84;97.03
65836;SHT30;52595;51.608;7.216;2022-10-16T03:45:58;12.77;97.04
65836;SHT30;52595;51.608;7.216;2022-10-16T03:48:23;12.75;97.28
65836;SHT30;52595;51.608;7.216;2022-10-16T03:50:49;12.75;96.91
65836;SHT30;52595;51.608;7.216;2022-10-16T03:53:15;12.62;97.23
65836;SHT30;52595;51.608;7.216;2022-10-16T03:55:41;12.63;97.31
65836;SHT30;52595;51.608;7.216;2022-10-16T03:58:07;12.73;97.00
65836;SHT30;52595;51.608;7.216;2022-10-16T04:00:33;12.66;97.06
65836;SHT30;52595;51.608;7.216;2022-10-16T04:02:58;12.63;97.21
65836;SHT30;52595;51.608;7.216;2022-10-16T04:05:23;12.79;96.45
65836;SHT30;52595;51.608;7.216;2022-10-16T04:07:49;12.86;96.16
65836;SHT30;52595;51.608;7.216;2022-10-16T04:10:14;12.90;95.85
65836;SHT30;52595;51.608;7.216;2022-10-16T04:12:39;12.93;95.69
65836;SHT30;52595;51.608;7.216;2022-10-16T04:15:05;13.00;95.22
65836;SHT30;52595;51.608;7.216;2022-10-16T04:17:31;13.00;95.21
65836;SHT30;52595;51.608;7.216;2022-10-16T04:19:56;13.10;95.01
65836;SHT30;52595;51.608;7.216;2022-10-16T04:22:21;13.17;94.30
65836;SHT30;52595;51.608;7.216;2022-10-16T04:24:47;13.21;94.04
65836;SHT30;52595;51.608;7.216;2022-10-16T04:27:12;13.17;94.38
65836;SHT30;52595;51.608;7.216;2022-10-16T04:29:37;13.13;94.57
65836;SHT30;52595;51.608;7.216;2022-10-16T04:32:03;13.11;94.49
65836;SHT30;52595;51.608;7.216;2022-10-16T04:34:28;13.04;94.60
65836;SHT30;52595;51.608;7.216;2022-10-16T04:36:53;13.13;94.30
65836;SHT30;52595;51.608;7.216;2022-10-16T04:39:19;13.27;93.63
65836;SHT30;52595;51.608;7.216;2022-10-16T04:41:44;13.18;94.05
65836;SHT30;52595;51.608;7.216;2022-10-16T04:44:10;13.17;93.95
65836;SHT30;52595;51.608;7.216;2022-10-16T04:46:35;13.20;93.86
65836;SHT30;52595;51.608;7.216;2022-10-16T04:49:00;13.20;93.79
65836;SHT30;52595;51.608;7.216;2022-10-16T04:51:26;13.13;93.96
65836;SHT30;52595;51.608;7.216;2022-10-16T04:53:53;13.14;93.78
65836;SHT30;52595;51.608;7.216;2022-10-16T04:56:18;13.06;94.06
65836;SHT30;52595;51.608;7.216;2022-10-16T04:58:43;13.11;93.79
65836;SHT30;52595;51.608;7.216;2022-10-16T05:01:09;13.14;93.72
65836;SHT30;52595;51.608;7.216;2022-10-16T05:03:34;13.14;93.61
65836;SHT30;52595;51.608;7.216;2022-10-16T05:06:00;13.18;93.48
65836;SHT30;52595;51.608;7.216;2022-10-16T05:08:25;13.18;93.41
65836;SHT30;52595;51.608;7.216;2022-10-16T05:10:50;13.17;93.47
65836;SHT30;52595;51.608;7.216;2022-10-16T05:13:16;13.13;93.59
65836;SHT30;52595;51.608;7.216;2022-10-16T05:15:41;13.10;93.71
65836;SHT30;52595;51.608;7.216;2022-10-16T05:18:08;13.10;93.68
65836;SHT30;52595;51.608;7.216;2022-10-16T05:20:34;13.14;93.65
65836;SHT30;52595;51.608;7.216;2022-10-16T05:22:59;13.23;93.26
65836;SHT30;52595;51.608;7.216;2022-10-16T05:25:24;13.17;93.58
65836;SHT30;52595;51.608;7.216;2022-10-16T05:27:50;13.17;93.40
65836;SHT30;52595;51.608;7.216;2022-10-16T05:30:16;13.11;93.54
65836;SHT30;52595;51.608;7.216;2022-10-16T05:32:46;13.11;93.79
65836;SHT30;52595;51.608;7.216;2022-10-16T05:35:12;13.07;93.81
65836;SHT30;52595;51.608;7.216;2022-10-16T05:37:37;13.11;93.78
65836;SHT30;52595;51.608;7.216;2022-10-16T05:40:02;13.15;93.66
65836;SHT30;52595;51.608;7.216;2022-10-16T05:42:29;13.10;93.82
65836;SHT30;52595;51.608;7.216;2022-10-16T05:44:55;13.11;93.94
65836;SHT30;52595;51.608;7.216;2022-10-16T05:47:20;13.13;93.83
65836;SHT30;52595;51.608;7.216;2022-10-16T05:49:46;13.02;94.12
65836;SHT30;52595;51.608;7.216;2022-10-16T05:52:11;13.10;94.14
65836;SHT30;52595;51.608;7.216;2022-10-16T05:54:37;13.10;94.06
65836;SHT30;52595;51.608;7.216;2022-10-16T05:57:02;13.13;94.06
65836;SHT30;52595;51.608;7.216;2022-10-16T05:59:27;13.18;93.80
65836;SHT30;52595;51.608;7.216;2022-10-16T06:01:53;13.20;94.08
65836;SHT30;52595;51.608;7.216;2022-10-16T06:04:18;13.15;94.55
65836;SHT30;52595;51.608;7.216;2022-10-16T06:06:44;13.17;94.45
65836;SHT30;52595;51.608;7.216;2022-10-16T06:09:09;13.23;93.97
65836;SHT30;52595;51.608;7.216;2022-10-16T06:11:36;13.18;93.87
65836;SHT30;52595;51.608;7.216;2022-10-16T06:14:02;13.23;93.97
65836;SHT30;52595;51.608;7.216;2022-10-16T06:16:32;13.25;93.80
65836;SHT30;52595;51.608;7.216;2022-10-16T06:18:58;13.14;94.25
65836;SHT30;52595;51.608;7.216;2022-10-16T06:21:27;13.15;94.32
65836;SHT30;52595;51.608;7.216;2022-10-16T06:23:54;13.11;94.38
65836;SHT30;52595;51.608;7.216;2022-10-16T06:26:22;13.08;94.60
65836;SHT30;52595;51.608;7.216;2022-10-16T06:28:48;13.23;94.42
65836;SHT30;52595;51.608;7.216;2022-10-16T06:31:14;13.30;93.96
65836;SHT30;52595;51.608;7.216;2022-10-16T06:33:41;13.31;93.81
65836;SHT30;52595;51.608;7.216;2022-10-16T06:36:12;13.33;93.71
65836;SHT30;52595;51.608;7.216;2022-10-16T06:38:38;13.35;93.77
65836;SHT30;52595;51.608;7.216;2022-10-16T06:41:04;13.35;93.77
65836;SHT30;52595;51.608;7.216;2022-10-16T06:43:30;13.37;93.68
65836;SHT30;52595;51.608;7.216;2022-10-16T06:46:01;13.38;93.66
65836;SHT30;52595;51.608;7.216;2022-10-16T06:48:27;13.43;93.66
65836;SHT30;52595;51.608;7.216;2022-10-16T06:51:06;13.48;93.45
65836;SHT30;52595;51.608;7.216;2022-10-16T06:53:34;13.51;93.44
65836;SHT30;52595;51.608;7.216;2022-10-16T06:56:18;13.45;93.61
65836;SHT30;52595;51.608;7.216;2022-10-16T06:58:44;13.40;93.95
65836;SHT30;52595;51.608;7.216;2022-10-16T07:01:11;13.43;93.74
65836;SHT30;52595;51.608;7.216;2022-10-16T07:03:37;13.40;93.88
65836;SHT30;52595;51.608;7.216;2022-10-16T07:06:05;13.34;94.23
65836;SHT30;52595;51.608;7.216;2022-10-16T07:08:35;13.38;94.06
65836;SHT30;52595;51.608;7.216;2022-10-16T07:11:09;13.43;94.04
65836;SHT30;52595;51.608;7.216;2022-10-16T07:13:39;13.47;93.81
65836;SHT30;52595;51.608;7.216;2022-10-16T07:16:10;13.55;93.52
65836;SHT30;52595;51.608;7.216;2022-10-16T07:18:35;13.51;93.64
65836;SHT30;52595;51.608;7.216;2022-10-16T07:21:05;13.41;94.09
65836;SHT30;52595;51.608;7.216;2022-10-16T07:23:31;13.53;93.73
65836;SHT30;52595;51.608;7.216;2022-10-16T07:25:56;13.53;93.67
65836;SHT30;52595;51.608;7.216;2022-10-16T07:28:21;13.59;93.38
65836;SHT30;52595;51.608;7.216;2022-10-16T07:30:47;13.55;93.66
65836;SHT30;52595;51.608;7.216;2022-10-16T07:33:13;13.53;93.81
65836;SHT30;52595;51.608;7.216;2022-10-16T07:35:53;13.61;93.47
65836;SHT30;52595;51.608;7.216;2022-10-16T07:38:19;13.61;93.61
65836;SHT30;52595;51.608;7.216;2022-10-16T07:40:45;13.71;93.47
65836;SHT30;52595;51.608;7.216;2022-10-16T07:43:11;13.72;93.55
65836;SHT30;52595;51.608;7.216;2022-10-16T07:45:37;13.77;93.68
65836;SHT30;52595;51.608;7.216;2022-10-16T07:48:02;13.86;93.47
65836;SHT30;52595;51.608;7.216;2022-10-16T07:50:28;14.01;92.94
65836;SHT30;52595;51.608;7.216;2022-10-16T07:52:53;14.19;92.10
65836;SHT30;52595;51.608;7.216;2022-10-16T07:55:18;14.22;92.24
65836;SHT30;52595;51.608;7.216;2022-10-16T07:57:44;14.26;92.00
65836;SHT30;52595;51.608;7.216;2022-10-16T08:00:09;14.43;91.17
65836;SHT30;52595;51.608;7.216;2022-10-16T08:02:42;14.53;90.95
65836;SHT30;52595;51.608;7.216;2022-10-16T08:05:07;14.62;90.60
65836;SHT30;52595;51.608;7.216;2022-10-16T08:07:33;14.64;90.72
65836;SHT30;52595;51.608;7.216;2022-10-16T08:09:58;14.72;90.04
65836;SHT30;52595;51.608;7.216;2022-10-16T08:12:25;14.76;90.18
65836;SHT30;52595;51.608;7.216;2022-10-16T08:14:50;14.81;89.63
65836;SHT30;52595;51.608;7.216;2022-10-16T08:17:16;14.84;89.30
65836;SHT30;52595;51.608;7.216;2022-10-16T08:19:45;14.95;89.44
65836;SHT30;52595;51.608;7.216;2022-10-16T08:22:11;15.00;89.31
65836;SHT30;52595;51.608;7.216;2022-10-16T08:24:37;15.03;89.41
65836;SHT30;52595;51.608;7.216;2022-10-16T08:27:02;15.14;88.38
65836;SHT30;52595;51.608;7.216;2022-10-16T08:29:28;15.18;88.31
65836;SHT30;52595;51.608;7.216;2022-10-16T08:31:53;15.23;88.25
65836;SHT30;52595;51.608;7.216;2022-10-16T08:34:19;15.28;88.05
65836;SHT30;52595;51.608;7.216;2022-10-16T08:36:44;15.35;87.44
65836;SHT30;52595;51.608;7.216;2022-10-16T08:39:10;15.45;86.83
65836;SHT30;52595;51.608;7.216;2022-10-16T08:44:30;15.58;85.35
65836;SHT30;52595;51.608;7.216;2022-10-16T08:49:27;15.65;84.72
65836;SHT30;52595;51.608;7.216;2022-10-16T08:51:52;15.70;84.78
65836;SHT30;52595;51.608;7.216;2022-10-16T08:54:28;15.78;84.49
65836;SHT30;52595;51.608;7.216;2022-10-16T08:56:56;15.88;83.68
65836;SHT30;52595;51.608;7.216;2022-10-16T08:59:22;15.99;83.69
65836;SHT30;52595;51.608;7.216;2022-10-16T09:01:49;15.98;83.38
65836;SHT30;52595;51.608;7.216;2022-10-16T09:04:38;16.02;82.88
65836;SHT30;52595;51.608;7.216;2022-10-16T09:12:53;16.23;82.24
65836;SHT30;52595;51.608;7.216;2022-10-16T09:15:40;16.27;82.29
65836;SHT30;52595;51.608;7.216;2022-10-16T09:21:11;16.27;81.64
65836;SHT30;52595;51.608;7.216;2022-10-16T09:23:38;16.27;80.70
65836;SHT30;52595;51.608;7.216;2022-10-16T09:26:05;16.29;80.99
65836;SHT30;52595;51.608;7.216;2022-10-16T09:28:34;16.29;81.54
65836;SHT30;52595;51.608;7.216;2022-10-16T09:30:59;16.34;81.05
65836;SHT30;52595;51.608;7.216;2022-10-16T09:33:33;16.39;81.01
65836;SHT30;52595;51.608;7.216;2022-10-16T09:36:02;16.26;81.14
65836;SHT30;52595;51.608;7.216;2022-10-16T09:38:31;16.29;81.79
65836;SHT30;52595;51.608;7.216;2022-10-16T09:40:58;16.37;81.33
65836;SHT30;52595;51.608;7.216;2022-10-16T09:43:34;16.40;80.98
65836;SHT30;52595;51.608;7.216;2022-10-16T09:46:04;16.61;79.85
65836;SHT30;52595;51.608;7.216;2022-10-16T09:51:05;16.88;80.09
65836;SHT30;52595;51.608;7.216;2022-10-16T09:53:43;16.91;80.47
65836;SHT30;52595;51.608;7.216;2022-10-16T09:56:30;16.85;80.54
65836;SHT30;52595;51.608;7.216;2022-10-16T09:59:01;16.77;78.72
65836;SHT30;52595;51.608;7.216;2022-10-16T10:01:37;16.73;78.18
65836;SHT30;52595;51.608;7.216;2022-10-16T10:04:03;16.75;78.77
65836;SHT30;52595;51.608;7.216;2022-10-16T10:06:40;16.98;78.86
65836;SHT30;52595;51.608;7.216;2022-10-16T10:14:37;17.40;77.61
65836;SHT30;52595;51.608;7.216;2022-10-16T10:17:11;17.43;77.18
65836;SHT30;52595;51.608;7.216;2022-10-16T10:19:54;17.46;77.11
65836;SHT30;52595;51.608;7.216;2022-10-16T10:36:44;18.58;73.97
65836;SHT30;52595;51.608;7.216;2022-10-16T10:39:35;18.38;74.00
65836;SHT30;52595;51.608;7.216;2022-10-16T10:42:09;18.57;73.44
65836;SHT30;52595;51.608;7.216;2022-10-16T10:47:29;19.01;70.56
65836;SHT30;52595;51.608;7.216;2022-10-16T10:50:25;18.87;70.59
65836;SHT30;52595;51.608;7.216;2022-10-16T10:53:57;18.09;72.20
65836;SHT30;52595;51.608;7.216;2022-10-16T10:59:15;18.12;72.43
65836;SHT30;52595;51.608;7.216;2022-10-16T11:06:59;18.63;71.58
65836;SHT30;52595;51.608;7.216;2022-10-16T11:09:39;19.63;68.48
65836;SHT30;52595;51.608;7.216;2022-10-16T11:12:17;19.55;68.43
65836;SHT30;52595;51.608;7.216;2022-10-16T11:14:53;19.53;68.94
65836;SHT30;52595;51.608;7.216;2022-10-16T11:17:42;19.22;69.83
65836;SHT30;52595;51.608;7.216;2022-10-16T11:20:20;19.28;68.84
65836;SHT30;52595;51.608;7.216;2022-10-16T11:22:51;19.74;68.64
65836;SHT30;52595;51.608;7.216;2022-10-16T11:25:20;18.92;69.39
65836;SHT30;52595;51.608;7.216;2022-10-16T11:30:41;18.89;69.40
65836;SHT30;52595;51.608;7.216;2022-10-16T11:38:01;20.82;63.14
65836;SHT30;52595;51.608;7.216;2022-10-16T11:40:31;22.34;60.54
65836;SHT30;52595;51.608;7.216;2022-10-16T11:43:07;23.75;55.34
65836;SHT30;52595;51.608;7.216;2022-10-16T11:45:45;23.78;56.15
65836;SHT30;52595;51.608;7.216;2022-10-16T11:54:22;22.35;58.07
65836;SHT30;52595;51.608;7.216;2022-10-16T11:56:55;22.35;57.29
65836;SHT30;52595;51.608;7.216;2022-10-16T11:59:37;22.28;59.00
65836;SHT30;52595;51.608;7.216;2022-10-16T12:05:11;23.60;54.64
65836;SHT30;52595;51.608;7.216;2022-10-16T12:07:44;23.57;55.55
65836;SHT30;52595;51.608;7.216;2022-10-16T12:10:21;22.04;57.26
65836;SHT30;52595;51.608;7.216;2022-10-16T12:12:46;21.00;60.55
65836;SHT30;52595;51.608;7.216;2022-10-16T12:17:45;22.33;56.47
65836;SHT30;52595;51.608;7.216;2022-10-16T12:25:21;23.08;55.21
65836;SHT30;52595;51.608;7.216;2022-10-16T12:27:54;22.85;56.00
65836;SHT30;52595;51.608;7.216;2022-10-16T12:30:23;22.94;56.17
65836;SHT30;52595;51.608;7.216;2022-10-16T12:33:02;20.88;60.50
65836;SHT30;52595;51.608;7.216;2022-10-16T12:35:33;22.34;58.51
65836;SHT30;52595;51.608;7.216;2022-10-16T12:38:16;23.83;54.14
65836;SHT30;52595;51.608;7.216;2022-10-16T12:40:43;24.03;53.47
65836;SHT30;52595;51.608;7.216;2022-10-16T12:43:40;23.88;53.01
65836;SHT30;52595;51.608;7.216;2022-10-16T12:48:37;21.42;58.58
65836;SHT30;52595;51.608;7.216;2022-10-16T12:51:55;20.84;60.45
65836;SHT30;52595;51.608;7.216;2022-10-16T12:54:03;20.51;62.01
65836;SHT30;52595;51.608;7.216;2022-10-16T12:59:39;21.87;59.67
65836;SHT30;52595;51.608;7.216;2022-10-16T13:09:22;23.42;54.04
65836;SHT30;52595;51.608;7.216;2022-10-16T13:19:57;22.11;57.17
65836;SHT30;52595;51.608;7.216;2022-10-16T13:27:59;25.95;48.28
65836;SHT30;52595;51.608;7.216;2022-10-16T13:30:28;26.99;47.29
65836;SHT30;52595;51.608;7.216;2022-10-16T13:33:04;25.07;50.03
65836;SHT30;52595;51.608;7.216;2022-10-16T13:35:33;22.56;56.15
65836;SHT30;52595;51.608;7.216;2022-10-16T13:38:14;21.49;59.69
65836;SHT30;52595;51.608;7.216;2022-10-16T13:40:56;21.25;60.10
65836;SHT30;52595;51.608;7.216;2022-10-16T13:43:48;24.69;52.48
65836;SHT30;52595;51.608;7.216;2022-10-16T13:48:41;25.57;49.57
65836;SHT30;52595;51.608;7.216;2022-10-16T13:51:16;24.44;51.78
65836;SHT30;52595;51.608;7.216;2022-10-16T13:53:43;23.03;55.20
65836;SHT30;52595;51.608;7.216;2022-10-16T13:56:14;21.61;58.89
65836;SHT30;52595;51.608;7.216;2022-10-16T13:58:40;21.08;60.46
65836;SHT30;52595;51.608;7.216;2022-10-16T14:01:29;20.79;61.57
65836;SHT30;52595;51.608;7.216;2022-10-16T14:04:10;20.54;62.47
65836;SHT30;52595;51.608;7.216;2022-10-16T14:06:41;20.24;63.06
65836;SHT30;52595;51.608;7.216;2022-10-16T14:11:57;20.51;63.35
65836;SHT30;52595;51.608;7.216;2022-10-16T14:14:24;21.46;61.23
65836;SHT30;52595;51.608;7.216;2022-10-16T14:16:50;23.54;55.75
65836;SHT30;52595;51.608;7.216;2022-10-16T14:19:25;24.65;53.58
65836;SHT30;52595;51.608;7.216;2022-10-16T14:21:51;25.92;49.60
65836;SHT30;52595;51.608;7.216;2022-10-16T14:24:33;24.95;51.86
65836;SHT30;52595;51.608;7.216;2022-10-16T14:27:00;24.05;54.02
65836;SHT30;52595;51.608;7.216;2022-10-16T14:29:27;23.43;55.19
65836;SHT30;52595;51.608;7.216;2022-10-16T14:32:01;21.97;57.39
65836;SHT30;52595;51.608;7.216;2022-10-16T14:34:37;20.88;60.41
65836;SHT30;52595;51.608;7.216;2022-10-16T14:37:26;20.38;61.52
65836;SHT30;52595;51.608;7.216;2022-10-16T14:39:53;20.23;62.17
65836;SHT30;52595;51.608;7.216;2022-10-16T14:42:21;19.93;63.22
65836;SHT30;52595;51.608;7.216;2022-10-16T14:44:50;19.84;63.85
65836;SHT30;52595;51.608;7.216;2022-10-16T14:47:20;19.60;64.13
65836;SHT30;52595;51.608;7.216;2022-10-16T14:49:51;19.60;63.83
65836;SHT30;52595;51.608;7.216;2022-10-16T14:52:18;19.87;63.46
65836;SHT30;52595;51.608;7.216;2022-10-16T14:54:48;20.37;61.53
65836;SHT30;52595;51.608;7.216;2022-10-16T14:57:18;20.52;61.60
65836;SHT30;52595;51.608;7.216;2022-10-16T14:59:45;20.81;60.68
65836;SHT30;52595;51.608;7.216;2022-10-16T15:04:45;20.09;62.80
65836;SHT30;52595;51.608;7.216;2022-10-16T15:07:10;19.80;63.74
65836;SHT30;52595;51.608;7.216;2022-10-16T15:09:36;19.62;64.66
65836;SHT30;52595;51.608;7.216;2022-10-16T15:12:01;19.59;65.12
65836;SHT30;52595;51.608;7.216;2022-10-16T15:14:27;19.39;64.97
65836;SHT30;52595;51.608;7.216;2022-10-16T15:16:52;19.20;65.42
65836;SHT30;52595;51.608;7.216;2022-10-16T15:19:18;19.18;65.62
65836;SHT30;52595;51.608;7.216;2022-10-16T15:21:43;19.09;65.93
65836;SHT30;52595;51.608;7.216;2022-10-16T15:24:12;18.98;67.00
65836;SHT30;52595;51.608;7.216;2022-10-16T15:26:37;18.89;66.82
65836;SHT30;52595;51.608;7.216;2022-10-16T15:29:03;18.79;66.88
65836;SHT30;52595;51.608;7.216;2022-10-16T15:31:28;18.75;67.58
65836;SHT30;52595;51.608;7.216;2022-10-16T15:33:54;18.75;68.30
65836;SHT30;52595;51.608;7.216;2022-10-16T15:36:31;18.77;68.19
65836;SHT30;52595;51.608;7.216;2022-10-16T15:38:59;18.71;68.09
65836;SHT30;52595;51.608;7.216;2022-10-16T15:41:24;18.68;69.02
65836;SHT30;52595;51.608;7.216;2022-10-16T15:43:50;18.61;69.19
65836;SHT30;52595;51.608;7.216;2022-10-16T15:46:21;18.58;67.96
65836;SHT30;52595;51.608;7.216;2022-10-16T15:48:50;18.50;69.38
65836;SHT30;52595;51.608;7.216;2022-10-16T15:51:17;18.48;70.65
65836;SHT30;52595;51.608;7.216;2022-10-16T15:53:42;18.44;70.71
65836;SHT30;52595;51.608;7.216;2022-10-16T15:56:10;18.44;70.77
65836;SHT30;52595;51.608;7.216;2022-10-16T15:58:36;18.40;71.91
65836;SHT30;52595;51.608;7.216;2022-10-16T16:01:02;18.37;72.32
65836;SHT30;52595;51.608;7.216;2022-10-16T16:03:29;18.27;72.52
65836;SHT30;52595;51.608;7.216;2022-10-16T16:05:55;18.20;73.48
65836;SHT30;52595;51.608;7.216;2022-10-16T16:08:21;18.16;74.37
65836;SHT30;52595;51.608;7.216;2022-10-16T16:11:08;17.99;74.09
65836;SHT30;52595;51.608;7.216;2022-10-16T16:13:35;17.80;74.51
65836;SHT30;52595;51.608;7.216;2022-10-16T16:16:05;17.66;75.44
65836;SHT30;52595;51.608;7.216;2022-10-16T16:18:31;17.53;75.59
65836;SHT30;52595;51.608;7.216;2022-10-16T16:20:56;17.42;75.97
65836;SHT30;52595;51.608;7.216;2022-10-16T16:23:22;17.32;76.08
65836;SHT30;52595;51.608;7.216;2022-10-16T16:26:13;17.18;76.29
65836;SHT30;52595;51.608;7.216;2022-10-16T16:28:41;17.11;76.55
65836;SHT30;52595;51.608;7.216;2022-10-16T16:31:07;17.04;77.46
65836;SHT30;52595;51.608;7.216;2022-10-16T16:33:32;16.91;78.29
65836;SHT30;52595;51.608;7.216;2022-10-16T16:35:59;16.83;78.35
65836;SHT30;52595;51.608;7.216;2022-10-16T16:38:25;16.74;78.42
65836;SHT30;52595;51.608;7.216;2022-10-16T16:40:50;16.60;78.99
65836;SHT30;52595;51.608;7.216;2022-10-16T16:43:17;16.47;79.46
65836;SHT30;52595;51.608;7.216;2022-10-16T16:45:42;16.37;80.11
65836;SHT30;52595;51.608;7.216;2022-10-16T16:48:08;16.27;80.86
65836;SHT30;52595;51.608;7.216;2022-10-16T16:50:37;16.23;81.51
65836;SHT30;52595;51.608;7.216;2022-10-16T16:53:02;16.14;82.02
65836;SHT30;52595;51.608;7.216;2022-10-16T16:55:28;16.06;82.29
65836;SHT30;52595;51.608;7.216;2022-10-16T16:57:54;16.00;82.50
65836;SHT30;52595;51.608;7.216;2022-10-16T17:00:19;15.92;82.79
65836;SHT30;52595;51.608;7.216;2022-10-16T17:02:48;15.95;82.34
65836;SHT30;52595;51.608;7.216;2022-10-16T17:05:13;15.92;82.36
65836;SHT30;52595;51.608;7.216;2022-10-16T17:07:39;15.85;82.69
65836;SHT30;52595;51.608;7.216;2022-10-16T17:10:06;15.85;82.67
65836;SHT30;52595;51.608;7.216;2022-10-16T17:12:32;15.82;82.83
65836;SHT30;52595;51.608;7.216;2022-10-16T17:14:57;15.79;82.42
65836;SHT30;52595;51.608;7.216;2022-10-16T17:17:23;15.72;82.34
65836;SHT30;52595;51.608;7.216;2022-10-16T17:19:51;15.77;82.31
65836;SHT30;52595;51.608;7.216;2022-10-16T17:22:18;15.78;81.98
65836;SHT30;52595;51.608;7.216;2022-10-16T17:24:43;15.83;81.44
65836;SHT30;52595;51.608;7.216;2022-10-16T17:27:09;15.82;81.70
65836;SHT30;52595;51.608;7.216;2022-10-16T17:29:36;15.90;81.76
65836;SHT30;52595;51.608;7.216;2022-10-16T17:32:01;15.95;81.61
65836;SHT30;52595;51.608;7.216;2022-10-16T17:34:27;15.93;81.77
65836;SHT30;52595;51.608;7.216;2022-10-16T17:36:52;15.92;81.95
65836;SHT30;52595;51.608;7.216;2022-10-16T17:39:18;15.86;81.68